Data for 08/17/2018

Time Sea-Level Adjusted Pressure Absolute Pressure Temperature Relative Humidity Dew Point   
(mb) (inHg) (mb) (inHg) (C) (F) (%) (C) (F)
00:05 1023 30.21 852 25.16 20.9 69.5 24 -0.6 31
00:10 1023 30.21 852 25.16 20.5 68.9 26 0.4 32.6
00:15 1023 30.21 852 25.16 20.2 68.4 26 0.1 32.1
00:20 1023 30.21 852 25.16 19.8 67.7 28 1 33.8
00:25 1023 30.21 852 25.16 19.1 66.4 29 0.8 33.4
00:30 1023 30.21 852 25.16 19.3 66.8 26 -0.4 31.3
00:35 1023 30.21 852 25.16 19.7 67.5 26 -0.3 31.4
00:40 1023 30.21 852 25.16 19.4 66.9 26 -0.7 30.8
00:45 1023 30.21 852 25.16 19.1 66.3 26 -0.7 30.8
00:50 1023 30.21 852 25.16 19 66.1 26 -0.6 30.9
00:55 1023 30.21 853 25.19 19 66.2 27 -0.2 31.6
01:00 1023 30.21 852 25.16 18.7 65.6 27 -0.3 31.4
01:05 1023 30.21 852 25.16 18.5 65.3 28 -0.5 31.2
01:10 1023 30.21 852 25.16 18.7 65.7 25 -1.5 29.3
01:15 1023 30.21 852 25.16 19.4 67 24 -1.5 29.4
01:20 1023 30.21 852 25.16 19.5 67.1 25 -1.2 29.9
01:25 1023 30.21 852 25.16 19.6 67.3 24 -1.4 29.4
01:30 1023 30.21 852 25.16 19.9 67.8 24 -1.2 29.9
01:35 1023 30.21 852 25.16 19.8 67.6 25 -0.4 31.3
01:40 1023 30.21 852 25.16 19.4 66.8 27 0.1 32.1
01:45 1023 30.21 852 25.16 19.1 66.3 28 0.4 32.7
01:50 1023 30.21 852 25.16 18.6 65.4 30 0.8 33.4
01:55 1023 30.21 852 25.16 18.2 64.7 30 0.3 32.5
02:00 1023 30.21 852 25.16 18.3 65 29 0 32.1
02:05 1023 30.21 852 25.16 18.5 65.4 27 -0.6 31
02:10 1023 30.21 852 25.16 19.1 66.4 26 -0.5 31.1
02:15 1023 30.21 852 25.16 19.4 66.8 26 -0.7 30.8
02:20 1023 30.21 852 25.16 19.5 67.1 25 -0.9 30.4
02:25 1023 30.21 852 25.16 19.8 67.7 25 -0.6 31
02:30 1023 30.21 852 25.16 19.9 67.8 25 -0.8 30.6
02:35 1023 30.21 852 25.16 19.8 67.6 25 -0.6 30.9
02:40 1023 30.21 852 25.16 19.7 67.4 24 -1.1 30.1
02:45 1023 30.21 852 25.16 19.9 67.8 25 -0.7 30.8
02:50 1023 30.21 852 25.16 19.6 67.3 25 -0.6 30.9
02:55 1023 30.21 852 25.16 19.4 67 25 -0.7 30.8
03:00 1023 30.21 852 25.16 19.3 66.7 27 0.1 32.1
03:05 1023 30.21 852 25.16 19 66.1 27 -0.5 31.1
03:10 1023 30.21 852 25.16 19 66.2 28 0.1 32.2
03:15 1023 30.21 852 25.16 19.1 66.3 27 -0.2 31.6
03:20 1023 30.21 852 25.16 19.3 66.8 26 -0.3 31.4
03:25 1023 30.21 852 25.16 19.8 67.6 25 -0.6 30.9
03:30 1023 30.21 852 25.16 20.1 68.2 24 -1 30.2
03:35 1023 30.21 852 25.16 20.4 68.6 28 1.3 34.3
03:40 1023 30.21 852 25.16 19 66.2 31 1.9 35.3
03:45 1023 30.21 852 25.16 18.2 64.7 33 1.8 35.3
03:50 1023 30.21 852 25.16 17.8 64.1 35 2.1 35.9
03:55 1023 30.21 852 25.16 18 64.4 30 0.2 32.4
04:00 1023 30.21 852 25.16 18.9 66 27 -0.4 31.3
04:05 1023 30.21 852 25.16 19.4 66.9 26 -0.3 31.5
04:10 1023 30.21 852 25.16 19.4 66.9 28 0.4 32.7
04:15 1023 30.21 852 25.16 19.3 66.7 28 0.5 32.9
04:20 1023 30.21 852 25.16 18.9 66 28 0.2 32.3
04:25 1023 30.21 852 25.16 18.8 65.8 29 0.4 32.7
04:30 1023 30.21 852 25.16 18.8 65.9 30 1 33.7
04:35 1023 30.21 852 25.16 18.3 65 32 1.5 34.6
04:40 1023 30.21 852 25.16 18 64.4 31 0.9 33.7
04:45 1023 30.21 852 25.16 18 64.5 34 2 35.6
04:50 1023 30.21 852 25.16 18.1 64.5 33 1.8 35.2
04:55 1023 30.21 852 25.16 18.2 64.7 35 2.6 36.6
05:00 1023 30.21 852 25.16 18.2 64.8 35 2.5 36.5
05:05 1023 30.21 852 25.16 18.1 64.5 37 3.2 37.8
05:10 1023 30.21 853 25.19 17.5 63.5 38 3.2 37.7
05:15 1023 30.21 853 25.19 17 62.7 40 3.4 38.1
05:20 1023 30.21 853 25.19 16.8 62.3 43 4.3 39.7
05:25 1024 30.24 853 25.19 16.5 61.7 42 3.7 38.7
05:30 1024 30.24 853 25.19 16.8 62.2 40 3.1 37.6
05:35 1024 30.24 853 25.19 17.1 62.8 40 3.5 38.2
05:40 1024 30.24 853 25.19 17.3 63.1 40 3.6 38.4
05:45 1024 30.24 853 25.19 17.4 63.4 38 3 37.4
05:50 1024 30.24 853 25.19 17.6 63.7 38 3.2 37.8
05:55 1024 30.24 853 25.19 17.3 63.1 39 3.2 37.7
06:00 1024 30.24 853 25.19 17 62.6 40 3.3 37.9
06:05 1024 30.24 853 25.19 17.1 62.7 39 3 37.4
06:10 1024 30.24 853 25.19 17.4 63.4 36 2.3 36.1
06:15 1024 30.24 853 25.19 18 64.4 34 1.9 35.4
06:20 1024 30.24 853 25.19 18.1 64.5 33 1.6 35
06:25 1024 30.24 853 25.19 18.2 64.8 36 3.1 37.7
06:30 1024 30.24 853 25.19 18.3 64.9 37 3.5 38.3
06:35 1024 30.24 853 25.19 18.3 64.9 37 3.3 38
06:40 1024 30.24 853 25.19 18.4 65 38 3.9 39.1
06:45 1024 30.24 853 25.19 18.4 65 40 4.7 40.4
06:50 1024 30.24 853 25.19 18.2 64.7 38 3.8 38.9
06:55 1024 30.24 853 25.19 18.1 64.5 36 2.9 37.2
07:00 1024 30.24 853 25.19 18.2 64.8 41 4.9 40.8
07:05 1024 30.24 853 25.19 18.5 65.2 35 2.9 37.2
07:10 1024 30.24 853 25.19 18.5 65.3 34 2.5 36.5
07:15 1024 30.24 853 25.19 18.5 65.3 33 2.2 35.9
07:20 1024 30.24 853 25.19 18.6 65.5 33 2.1 35.7
07:25 1024 30.24 853 25.19 18.7 65.6 33 2.2 35.9
07:30 1024 30.24 853 25.19 18.7 65.6 37 4 39.2
07:35 1024 30.24 853 25.19 18.8 65.8 41 5.4 41.7
07:40 1024 30.24 853 25.19 18.8 65.8 39 4.8 40.6
07:45 1024 30.24 853 25.19 18.8 65.8 42 5.7 42.2
07:50 1024 30.24 854 25.22 18.7 65.6 38 4.3 39.8
07:55 1024 30.24 854 25.22 18.6 65.4 39 4.3 39.8
08:00 1024 30.24 854 25.22 18.7 65.6 37 3.9 39.1
08:05 1024 30.24 854 25.22 18.7 65.6 40 5 41
08:10 1024 30.24 854 25.22 18.7 65.6 40 5.1 41.1
08:15 1024 30.24 854 25.22 18.7 65.6 39 4.5 40.1
08:20 1024 30.24 854 25.22 18.9 66 40 5.1 41.1
08:25 1024 30.24 854 25.22 19.2 66.6 37 4.2 39.5
08:30 1024 30.24 854 25.22 19.6 67.2 38 4.8 40.7
08:35 1025 30.27 854 25.22 19.8 67.6 36 4.5 40.1
08:40 1025 30.27 854 25.22 19.8 67.7 40 5.9 42.7
08:45 1025 30.27 854 25.22 20.1 68.1 37 5.2 41.3
08:50 1024 30.24 854 25.22 20.3 68.6 40 6.4 43.4
08:55 1024 30.24 854 25.22 20.3 68.5 37 5.3 41.6
09:00 1024 30.24 854 25.22 20.4 68.6 40 6.5 43.7
09:05 1024 30.24 854 25.22 20.5 69 40 6.8 44.2
09:10 1025 30.27 854 25.22 21.1 70.1 29 2.8 37.1
09:15 1024 30.24 854 25.22 21.5 70.7 30 3.3 38
09:20 1024 30.24 854 25.22 21.2 70.2 34 4.7 40.5
09:25 1024 30.24 854 25.22 21.4 70.4 35 5.2 41.4
09:30 1024 30.24 854 25.22 21.9 71.5 27 2.5 36.6
09:35 1024 30.24 854 25.22 22.2 71.9 29 3.7 38.7
09:40 1024 30.24 854 25.22 22.3 72.2 29 3.6 38.5
09:45 1024 30.24 854 25.22 22.6 72.8 29 4 39.1
09:50 1024 30.24 854 25.22 23.1 73.6 29 4.2 39.6
09:55 1024 30.24 854 25.22 23.1 73.7 29 4.3 39.7
10:00 1024 30.24 854 25.22 23.6 74.4 27 3.9 39.1
10:05 1024 30.24 854 25.22 24.1 75.4 27 4.2 39.6
10:10 1024 30.24 854 25.22 24.1 75.4 28 5 40.9
10:15 1024 30.24 854 25.22 23.6 74.4 29 4.8 40.7
10:20 1024 30.24 854 25.22 23.5 74.4 29 4.6 40.3
10:25 1024 30.24 853 25.19 24.2 75.6 28 4.9 40.8
10:30 1024 30.24 853 25.19 25.1 77.1 26 4.5 40.1
10:35 1024 30.24 853 25.19 25.6 78 24 4 39.3
10:40 1024 30.24 853 25.19 25.6 78.1 24 3.9 39
10:45 1024 30.24 853 25.19 26.4 79.6 23 3.7 38.6
10:50 1024 30.24 853 25.19 27.1 80.8 23 4.3 39.7
10:55 1024 30.24 853 25.19 26.8 80.2 22 3.8 38.9
11:00 1024 30.24 853 25.19 26.4 79.5 23 3.6 38.4
11:05 1024 30.24 853 25.19 26.6 79.8 23 3.8 38.8
11:10 1024 30.24 853 25.19 26.9 80.4 22 4 39.1
11:15 1024 30.24 853 25.19 26.9 80.5 22 3.7 38.6
11:20 1024 30.24 853 25.19 27.3 81.1 19 2.2 35.9
11:25 1024 30.24 853 25.19 27.4 81.4 19 1.9 35.5
11:30 1024 30.24 853 25.19 27.8 82.1 19 2.1 35.8
11:35 1024 30.24 853 25.19 28.1 82.5 20 3.2 37.8
11:40 1024 30.24 853 25.19 27.5 81.5 20 3.2 37.8
11:45 1024 30.24 853 25.19 26.8 80.2 21 2.7 36.8
11:50 1024 30.24 853 25.19 27.5 81.4 19 1.8 35.2
11:55 1024 30.24 853 25.19 27.6 81.6 20 2.7 36.8
12:00 1024 30.24 853 25.19 27.3 81.1 20 2.7 36.9
12:05 1024 30.24 853 25.19 27.9 82.3 19 2.1 35.8
12:10 1024 30.24 853 25.19 28.4 83 18 2 35.6
12:15 1024 30.24 853 25.19 28.8 83.8 19 3 37.5
12:20 1024 30.24 853 25.19 28.8 83.9 18 2.6 36.7
12:25 1024 30.24 853 25.19 28.8 83.8 18 2 35.7
12:30 1024 30.24 853 25.19 28.8 83.8 18 2.5 36.5
12:35 1024 30.24 853 25.19 28.3 83 17 1.1 34.1
12:40 1023 30.21 853 25.19 28 82.5 17 1.2 34.1
12:45 1023 30.21 853 25.19 28 82.3 17 1.1 34
12:50 1023 30.21 853 25.19 28.9 84 16 0.5 32.9
12:55 1023 30.21 853 25.19 29.4 85 15 0.2 32.4
13:00 1023 30.21 853 25.19 29.9 85.7 15 0.4 32.7
13:05 1023 30.21 852 25.16 30 86 15 1 33.8
13:10 1023 30.21 852 25.16 29.4 84.9 15 0.1 32.2
13:15 1023 30.21 852 25.16 29.8 85.6 14 -0.4 31.3
13:20 1023 30.21 852 25.16 30.3 86.6 14 0.1 32.2
13:25 1023 30.21 852 25.16 29.9 85.7 15 0.9 33.7
13:30 1023 30.21 852 25.16 30.2 86.4 14 0.1 32.1
13:35 1023 30.21 852 25.16 30.6 87.1 14 0.7 33.3
13:40 1023 30.21 852 25.16 30.3 86.6 15 1.1 34.1
13:45 1023 30.21 852 25.16 29.5 85.1 14 -0.5 31.2
13:50 1023 30.21 852 25.16 30 86 14 -0.5 31.1
13:55 1023 30.21 852 25.16 30.4 86.7 14 0.4 32.7
14:00 1023 30.21 852 25.16 31 87.8 14 1 33.8
14:05 1023 30.21 852 25.16 31.2 88.2 15 1.6 34.8
14:10 1023 30.21 852 25.16 30.5 87 13 -0.3 31.5
14:15 1023 30.21 852 25.16 29.5 85.1 13 -1.7 29
14:20 1022 30.18 852 25.16 29.7 85.5 14 -0.2 31.6
14:25 1022 30.18 852 25.16 30.1 86.1 13 -0.7 30.7
14:30 1022 30.18 852 25.16 30.7 87.3 14 0.7 33.3
14:35 1022 30.18 851 25.13 30 86 15 0.5 33
14:40 1022 30.18 851 25.13 30.8 87.5 13 -0 31.9
14:45 1022 30.18 851 25.13 30.6 87.1 13 -0.9 30.4
14:50 1022 30.18 851 25.13 31.1 88 12 -0.8 30.6
14:55 1022 30.18 851 25.13 31.7 89 13 -0.2 31.6
15:00 1022 30.18 851 25.13 31.1 88.1 13 -0.2 31.6
15:05 1022 30.18 851 25.13 30.6 87 13 -0.3 31.4
15:10 1022 30.18 851 25.13 30.8 87.5 13 -0 32
15:15 1022 30.18 851 25.13 30 86 13 -0.6 31
15:20 1022 30.18 851 25.13 30.4 86.7 14 0.3 32.5
15:25 1022 30.18 851 25.13 30.5 86.9 14 -0 31.9
15:30 1022 30.18 851 25.13 30 85.9 14 0.4 32.6
15:35 1022 30.18 851 25.13 30.4 86.7 13 -0.5 31.2
15:40 1022 30.18 851 25.13 30.5 86.9 13 -0.4 31.2
15:45 1022 30.18 851 25.13 31 87.7 14 0.3 32.6
15:50 1022 30.18 851 25.13 30.7 87.3 14 0 32.1
15:55 1022 30.18 851 25.13 30.6 87 14 -0.1 31.9
16:00 1022 30.18 851 25.13 30.1 86.1 13 -0.7 30.8
16:05 1022 30.18 851 25.13 30.3 86.6 14 0 32
16:10 1022 30.18 851 25.13 30.2 86.4 13 -0.9 30.4
16:15 1022 30.18 851 25.13 30.2 86.3 14 -0.1 31.8
16:20 1022 30.18 851 25.13 30.4 86.7 14 0.4 32.8
16:25 1022 30.18 851 25.13 30.4 86.6 14 0.3 32.5
16:30 1022 30.18 851 25.13 30.3 86.6 14 0.3 32.5
16:35 1022 30.18 851 25.13 30.1 86.2 14 0.1 32.2
16:40 1021 30.15 851 25.13 29.7 85.5 14 0.2 32.4
16:45 1021 30.15 851 25.13 29.9 85.7 15 1.2 34.2
16:50 1022 30.18 851 25.13 29.7 85.5 14 -0.1 31.9
16:55 1022 30.18 851 25.13 29.7 85.5 14 -0.3 31.5
17:00 1022 30.18 851 25.13 29.6 85.4 15 0.4 32.6
17:05 1022 30.18 851 25.13 29.4 84.8 14 -0.1 31.8
17:10 1022 30.18 851 25.13 29.2 84.6 15 0.1 32.1
17:15 1022 30.18 851 25.13 29.1 84.3 14 -0.5 31.1
17:20 1022 30.18 851 25.13 28.9 84 15 -0.4 31.3
17:25 1022 30.18 851 25.13 28.8 83.8 16 0.8 33.4
17:30 1022 30.18 851 25.13 28.5 83.3 18 2.1 35.8
17:35 1022 30.18 851 25.13 27.8 82 23 4.9 40.9
17:40 1022 30.18 851 25.13 27 80.6 21 3.4 38.1
17:45 1022 30.18 851 25.13 26.8 80.3 19 1.8 35.2
17:50 1022 30.18 851 25.13 26.8 80.2 19 1.3 34.3
17:55 1022 30.18 851 25.13 26.6 79.9 19 1.5 34.7
18:00 1022 30.18 852 25.16 26.3 79.4 19 1 33.8
18:05 1022 30.18 852 25.16 26.1 79.1 21 2.7 36.9
18:10 1022 30.18 852 25.16 25.5 77.9 23 2.9 37.2
18:15 1023 30.21 852 25.16 25 77.1 23 2.5 36.6
18:20 1023 30.21 852 25.16 24.7 76.5 23 2.8 37
18:25 1024 30.24 853 25.19 24.6 76.2 28 4.9 40.8
18:30 1024 30.24 853 25.19 23.7 74.6 30 5.5 41.9
18:35 1024 30.24 853 25.19 23.3 73.9 31 5.4 41.6
18:40 1024 30.24 853 25.19 23.1 73.7 33 6.2 43.1
18:45 1024 30.24 854 25.22 22.8 73.1 33 5.7 42.3
18:50 1024 30.24 854 25.22 22.7 72.9 32 5.3 41.5
18:55 1024 30.24 854 25.22 22.8 73 32 5.3 41.5
19:00 1024 30.24 854 25.22 22.3 72.1 37 7.2 45
19:05 1024 30.24 854 25.22 21.3 70.4 38 6.7 44
19:10 1024 30.24 854 25.22 21.3 70.3 35 5.4 41.8
19:15 1025 30.27 854 25.22 21.6 70.9 35 5.6 42.2
19:20 1025 30.27 854 25.22 21.9 71.5 33 5.2 41.4
19:25 1024 30.24 854 25.22 22.1 71.8 33 5.5 41.8
19:30 1024 30.24 854 25.22 22.1 71.8 34 5.5 42
19:35 1024 30.24 853 25.19 22 71.6 34 5.5 41.9
19:40 1024 30.24 853 25.19 21.6 70.9 35 5.8 42.4
19:45 1024 30.24 853 25.19 21.5 70.7 34 5.4 41.7
19:50 1024 30.24 853 25.19 21.5 70.7 35 5.8 42.4
19:55 1024 30.24 853 25.19 21.5 70.6 35 5.7 42.3
20:00 1024 30.24 853 25.19 21.5 70.6 35 5.6 42.1
20:05 1024 30.24 853 25.19 21.4 70.5 36 5.7 42.3
20:10 1024 30.24 853 25.19 21.3 70.3 36 5.6 42.1
20:15 1024 30.24 853 25.19 21.4 70.4 34 4.9 40.8
20:20 1024 30.24 854 25.22 21.4 70.5 36 6 42.8
20:25 1025 30.27 854 25.22 20.9 69.7 38 6.3 43.4
20:30 1025 30.27 854 25.22 20.5 68.8 39 6.3 43.4
20:35 1025 30.27 854 25.22 20.3 68.5 40 6.3 43.4
20:40 1025 30.27 854 25.22 20.3 68.5 39 6.1 43
20:45 1025 30.27 854 25.22 20.5 68.9 38 5.9 42.5
20:50 1025 30.27 854 25.22 20.4 68.8 40 6.6 44
20:55 1025 30.27 854 25.22 20 68.1 40 6.3 43.3
21:00 1025 30.27 854 25.22 20.1 68.2 40 6.1 43
21:05 1025 30.27 854 25.22 20.2 68.4 40 6.3 43.4
21:10 1025 30.27 854 25.22 20.3 68.5 39 6.2 43.1
21:15 1025 30.27 854 25.22 20.4 68.7 39 6.2 43.2
21:20 1025 30.27 854 25.22 20.4 68.7 41 6.8 44.2
21:25 1025 30.27 854 25.22 20 67.9 40 6.1 43
21:30 1025 30.27 854 25.22 20.2 68.3 38 5.4 41.7
21:35 1025 30.27 854 25.22 20.4 68.7 39 6.2 43.2
21:40 1025 30.27 854 25.22 20.1 68.1 41 6.4 43.5
21:45 1024 30.24 854 25.22 19.8 67.7 41 6.5 43.6
21:50 1024 30.24 854 25.22 19.7 67.5 42 6.5 43.8
21:55 1024 30.24 853 25.19 19.8 67.6 41 6.4 43.5
22:00 1024 30.24 853 25.19 19.9 67.9 41 6.4 43.5
22:05 1024 30.24 853 25.19 19.8 67.7 42 6.6 43.9
22:10 1024 30.24 853 25.19 19.8 67.6 42 6.7 44.1
22:15 1024 30.24 853 25.19 19.7 67.4 43 7 44.6
22:20 1024 30.24 853 25.19 19.5 67.1 44 7 44.7
22:25 1024 30.24 853 25.19 19.4 66.9 46 7.5 45.5
22:30 1024 30.24 853 25.19 19.4 66.9 44 7 44.6
22:35 1024 30.24 854 25.22 19.4 66.9 42 6.4 43.5
22:40 1024 30.24 853 25.19 19.6 67.2 42 6.6 43.9
22:45 1024 30.24 853 25.19 19.4 67 43 6.8 44.3
22:50 1024 30.24 853 25.19 19.2 66.6 44 7 44.5
22:55 1024 30.24 853 25.19 19.1 66.4 45 6.9 44.4
23:00 1024 30.24 853 25.19 19 66.3 45 6.8 44.3
23:05 1024 30.24 853 25.19 19.1 66.4 44 6.7 44.1
23:10 1024 30.24 853 25.19 19.1 66.4 43 6.5 43.8
23:15 1024 30.24 853 25.19 19.1 66.4 43 6.5 43.7
23:20 1024 30.24 853 25.19 19.2 66.5 43 6.4 43.5
23:25 1024 30.24 853 25.19 19.2 66.6 43 6.3 43.4
23:30 1024 30.24 853 25.19 19.2 66.6 43 6.5 43.7
23:35 1024 30.24 853 25.19 19.1 66.3 44 6.8 44.2
23:40 1024 30.24 853 25.19 18.9 66.1 44 6.6 43.9
23:45 1024 30.24 853 25.19 18.9 65.9 44 6.5 43.7
23:50 1023 30.21 853 25.19 18.8 65.8 45 6.8 44.2
23:55 1023 30.21 853 25.19 18.8 65.8 44 6.5 43.6
24:00 1023 30.21 853 25.19 18.9 66 44 6.5 43.7